Terminal Aerodrome Forecast
Issued by NWS Memphis, TN

Home | Current Version | Previous Version | Text Only | Print | Product List | Glossary On
Versions: 1 2 3 4 5 6 7 8 9 10 11 12 13 14 15 16 17 18 19 20 21 22 23 24 25 26 27 28 29 30 31 32
000
FTUS44 KMEG 300340 AAB
TAFMEM
TAF AMD
KMEM 300340Z 3004/3024 23007KT P6SM VCTS BKN060CB OVC100
      TEMPO 3004/3007 VRB10G20KT 4SM TSRA BKN025 OVC040CB
     FM300700 32007KT P6SM BKN070
     FM301200 03007KT P6SM SKC
     FM301900 05005KT P6SM SKC=

USA.gov is the U.S. government's official web portal to all federal, state and local government web resources and services.